Terminal Aerodrome Forecast
Issued by NWS Atlanta, GA

Home | Current Version | Previous Version | Text Only | Print | Product List | Glossary On
Versions: 1 2 3 4 5 6 7 8 9 10 11 12 13 14 15 16 17 18 19 20 21 22 23 24 25 26 27 28 29 30 31 32
000
FTUS42 KFFC 282335
TAFAHN
TAF
KAHN 282335Z 0100/0124 08009KT P6SM SCT100
     FM010100 08010KT P6SM BKN040
     FM010600 08010KT 6SM -RA BKN008
     FM011000 08010KT 3SM -RADZ OVC004
     FM011500 08006KT 2SM -RADZ OVC004
     FM011900 08005KT 6SM BR BKN010=

USA.gov is the U.S. government's official web portal to all federal, state and local government web resources and services.